Airfield :
LOGIN :

Register | Disclaimer

   EN    FR    IT 

 










Legend :    VFR   Marginal VFR   IFR   Intensive IFR   Very Intensive IFR
Visi :
Ceiling :
>= 8 km
>= 3000ft
5 to 8 km
1000 to 3000 ft
1500m to 5 km
500 to 1000 ft
800 to 1500m
200 to 500 ft
< 800m
< 200 ft
Symbols :   Thunderstorms  Fog  Heavy snow  Heavy precipitations  Wind > 20 kt
SIGMETs :     Misc.  Thunderstorms  Icing  Turbulence  Mountain Waves  Volcanic Ashes






- Airport Elevation : 270 ft
- IATA code : OXF


EGTK - Oxford (Kidlington)

CURRENT METAR :
  • 231020Z 25020G31KT 9999 FEW018 BKN020 12/12 Q1010

EXPIRED METARs :
  • 230950Z 25022KT 9999 SCT009 BKN016 OVC020 12/12 Q1010
  • 230850Z 25026G38KT 9999 SCT012 BKN016 12/12 Q1009
  • 230820Z 25024G37KT 9000 BKN011 12/12 Q1009
  • 230750Z 25025G38KT 9999 -RA BKN009 OVC013 12/12 Q1008

TAF AMD TAF EGTK
Valid from the 23 at 09:00 until the 23 at 18:00 UTC


230908Z 2309/2318 25025G35KT 9999 SCT016
TEMPO 2309/2311 7000 -RA BKN012
PROB30
TEMPO 2309/2311 4000 RADZ BKN008
BECMG 2310/2313 28018G28KT
BECMG 2313/2316 30010KT



MET'MAP, your aeronautical weather chart ! - Copyright ORBIFLY December 2007 - Disclaimer

ORBIFLY MET'MAP TEAM :

Programming & Development : Alexandra Zaïnal
Concept & original design : Baudouin d'Aumeries
Assistance for programming : Marc-Olivier Méhu
Technical & hardware support : Manuel Goepfert

Contact : metmap@orbifly.com




SOURCES & CREDITS :

   NOAA